Time;durP1;ratioP1;P1;durP2;ratioP2;P2;SDS_P1;SDS_P2;PMS_P1;PMS_P2;Temp;Humidity;BMP_temperature;BMP_pressure;BME280_temperature;BME280_humidity;BME280_pressure;Samples;Min_cycle;Max_cycle;Signal;HPM_P1;HPM_P2
2022/04/12 00:00:38;;;;;;;;;;;10.70;99.90;;;;;;5072685;28;20027;-75
2022/04/12 00:03:05;;;;;;;;;;;10.70;99.90;;;;;;5072570;28;20354;-72
2022/04/12 00:05:33;;;;;;;;;;;10.70;99.90;;;;;;5071911;28;19924;-74
2022/04/12 00:08:00;;;;;;;;;;;10.70;99.90;;;;;;5072333;28;19925;-74
2022/04/12 00:10:27;;;;;;;;;;;10.70;99.90;;;;;;5072225;28;19924;-74
2022/04/12 00:12:56;;;;;;;;;;;10.70;99.90;;;;;;5072601;28;19928;-72
2022/04/12 00:15:22;;;;;;;;;;;10.60;99.90;;;;;;5072317;28;19924;-74
2022/04/12 00:20:36;;;;;;;;;;;10.60;99.90;;;;;;5071965;28;20058;-74
2022/04/12 00:23:04;;;;;;;;;;;10.60;99.90;;;;;;5072458;28;19934;-74
2022/04/12 00:25:31;;;;;;;;;;;10.60;99.90;;;;;;5072188;28;19932;-74
2022/04/12 00:28:00;;;;;;;;;;;10.60;99.90;;;;;;5072184;28;19924;-73
2022/04/12 00:30:28;;;;;;;;;;;10.60;99.90;;;;;;5072233;28;19931;-76
2022/04/12 00:32:54;;;;;;;;;;;10.60;99.90;;;;;;5071692;28;20457;-74
2022/04/12 00:35:22;;;;;;;;;;;10.50;99.90;;;;;;5072234;28;19966;-74
2022/04/12 00:37:50;;;;;;;;;;;10.60;99.90;;;;;;5072087;28;19974;-72
2022/04/12 00:40:18;;;;;;;;;;;10.60;99.90;;;;;;5071556;28;19924;-75
2022/04/12 00:42:44;;;;;;;;;;;10.60;99.90;;;;;;5071534;28;19971;-75
2022/04/12 00:45:13;;;;;;;;;;;10.50;99.90;;;;;;5071247;28;19931;-74
2022/04/12 00:47:40;;;;;;;;;;;10.50;99.90;;;;;;5071732;28;19924;-73
2022/04/12 00:50:09;;;;;;;;;;;10.50;99.90;;;;;;5071261;28;19924;-73
2022/04/12 00:52:37;;;;;;;;;;;10.50;99.90;;;;;;5071785;28;19924;-74
2022/04/12 00:55:04;;;;;;;;;;;10.50;99.90;;;;;;5071639;28;20382;-73
2022/04/12 00:57:31;;;;;;;;;;;10.50;99.90;;;;;;5071653;28;19924;-74
2022/04/12 01:00:00;;;;;;;;;;;10.40;99.90;;;;;;5071390;28;19924;-72
2022/04/12 01:02:28;;;;;;;;;;;10.50;99.90;;;;;;5071489;28;19924;-75
2022/04/12 01:04:55;;;;;;;;;;;10.40;99.90;;;;;;5070823;28;19928;-75
2022/04/12 01:07:22;;;;;;;;;;;10.40;99.90;;;;;;5071258;28;19928;-74
2022/04/12 01:09:49;;;;;;;;;;;10.40;99.90;;;;;;5071131;28;19929;-73
2022/04/12 01:12:18;;;;;;;;;;;10.40;99.90;;;;;;5071593;28;19924;-73
2022/04/12 01:14:45;;;;;;;;;;;10.40;99.90;;;;;;5071179;28;19978;-73
2022/04/12 01:17:12;;;;;;;;;;;10.40;99.90;;;;;;5070553;28;19924;-75
2022/04/12 01:19:40;;;;;;;;;;;10.40;99.90;;;;;;5071110;28;19932;-72
2022/04/12 01:22:09;;;;;;;;;;;10.40;99.90;;;;;;5071250;28;19925;-74
2022/04/12 01:24:37;;;;;;;;;;;10.40;99.90;;;;;;5071070;28;19924;-74
2022/04/12 01:27:04;;;;;;;;;;;10.40;99.90;;;;;;5071527;28;19966;-74
2022/04/12 01:29:35;;;;;;;;;;;10.40;99.90;;;;;;5070976;28;19924;-73
2022/04/12 01:32:07;;;;;;;;;;;10.40;99.90;;;;;;5070874;28;19925;-74
2022/04/12 01:34:34;;;;;;;;;;;10.40;99.90;;;;;;5070758;28;19925;-74
2022/04/12 01:37:02;;;;;;;;;;;10.40;99.90;;;;;;5070867;28;19931;-75
2022/04/12 01:39:30;;;;;;;;;;;10.40;99.90;;;;;;5070484;28;20383;-76
2022/04/12 01:41:58;;;;;;;;;;;10.50;99.90;;;;;;5071026;28;19924;-75
2022/04/12 01:44:25;;;;;;;;;;;10.50;99.90;;;;;;5069960;28;19928;-74
2022/04/12 01:46:52;;;;;;;;;;;10.50;99.90;;;;;;5070667;28;20319;-71
2022/04/12 01:49:19;;;;;;;;;;;10.40;99.90;;;;;;5070291;28;20003;-74
2022/04/12 01:51:45;;;;;;;;;;;10.40;99.90;;;;;;5070820;28;19925;-73
2022/04/12 01:54:12;;;;;;;;;;;10.40;99.90;;;;;;5069911;28;19925;-73
2022/04/12 01:56:39;;;;;;;;;;;10.30;99.90;;;;;;5070139;28;19929;-75
2022/04/12 01:59:07;;;;;;;;;;;10.30;99.90;;;;;;5070589;28;20333;-73
2022/04/12 02:01:34;;;;;;;;;;;10.30;99.90;;;;;;5070699;28;19970;-73
2022/04/12 02:04:01;;;;;;;;;;;10.20;99.90;;;;;;5070293;28;20345;-73
2022/04/12 02:06:28;;;;;;;;;;;10.20;99.90;;;;;;5070639;28;19970;-73
2022/04/12 02:08:54;;;;;;;;;;;10.20;99.90;;;;;;5070240;28;19993;-73
2022/04/12 02:11:21;;;;;;;;;;;10.20;99.90;;;;;;5070592;28;20350;-71
2022/04/12 02:13:48;;;;;;;;;;;10.20;99.90;;;;;;5070586;28;20289;-73
2022/04/12 02:16:16;;;;;;;;;;;10.20;99.90;;;;;;5070836;28;19937;-73
2022/04/12 02:18:43;;;;;;;;;;;10.20;99.90;;;;;;5070571;28;19928;-73
2022/04/12 02:21:09;;;;;;;;;;;10.20;99.90;;;;;;5102005;22;19925;-79
2022/04/12 02:23:36;;;;;;;;;;;10.20;99.90;;;;;;5072520;28;19924;-79
2022/04/12 02:26:03;;;;;;;;;;;10.10;99.90;;;;;;5072075;28;20391;-80
2022/04/12 02:28:29;;;;;;;;;;;10.10;99.90;;;;;;5074198;28;19924;-79
2022/04/12 02:30:56;;;;;;;;;;;10.10;99.90;;;;;;5075777;28;19924;-80
2022/04/12 02:33:25;;;;;;;;;;;10.10;99.90;;;;;;5076151;28;19924;-80
2022/04/12 02:35:52;;;;;;;;;;;10.10;99.90;;;;;;5076162;28;19925;-79
2022/04/12 02:38:19;;;;;;;;;;;10.10;99.90;;;;;;5076230;28;19925;-80
2022/04/12 02:40:46;;;;;;;;;;;10.10;99.90;;;;;;5075460;28;19924;-80
2022/04/12 02:43:12;;;;;;;;;;;10.10;99.90;;;;;;5075525;28;20395;-80
2022/04/12 02:45:39;;;;;;;;;;;10.10;99.90;;;;;;5076367;28;19924;-79
2022/04/12 02:48:08;;;;;;;;;;;10.10;99.90;;;;;;5075900;28;20024;-80
2022/04/12 02:50:37;;;;;;;;;;;10.10;99.90;;;;;;5075054;28;19924;-79
2022/04/12 02:53:03;;;;;;;;;;;10.10;99.90;;;;;;5075783;28;19931;-80
2022/04/12 02:55:30;;;;;;;;;;;10.00;99.90;;;;;;5075235;28;19932;-79
2022/04/12 02:57:57;;;;;;;;;;;10.00;99.90;;;;;;5075158;28;19924;-79
2022/04/12 03:00:24;;;;;;;;;;;10.00;99.90;;;;;;5074957;28;19924;-79
2022/04/12 03:02:50;;;;;;;;;;;10.00;99.90;;;;;;5075059;28;19924;-80
2022/04/12 03:05:17;;;;;;;;;;;9.90;99.90;;;;;;5075200;28;19924;-80
2022/04/12 03:07:45;;;;;;;;;;;9.90;99.90;;;;;;5075732;28;19928;-80
2022/04/12 03:10:12;;;;;;;;;;;9.90;99.90;;;;;;5075208;28;19928;-80
2022/04/12 03:12:39;;;;;;;;;;;9.90;99.90;;;;;;5075460;28;19925;-80
2022/04/12 03:15:08;;;;;;;;;;;9.90;99.90;;;;;;5075420;28;19924;-80
2022/04/12 03:17:34;;;;;;;;;;;9.80;99.90;;;;;;5075848;28;19926;-80
2022/04/12 03:20:01;;;;;;;;;;;9.90;99.90;;;;;;5075514;28;19931;-80
2022/04/12 03:22:28;;;;;;;;;;;9.80;99.90;;;;;;5075862;28;19924;-79
2022/04/12 03:24:56;;;;;;;;;;;9.80;99.90;;;;;;5075321;28;19924;-80
2022/04/12 03:27:23;;;;;;;;;;;9.80;99.90;;;;;;5076078;28;20349;-79
2022/04/12 03:29:50;;;;;;;;;;;9.80;99.90;;;;;;5076140;28;19939;-80
2022/04/12 03:32:17;;;;;;;;;;;9.70;99.90;;;;;;5076352;28;20387;-80
2022/04/12 03:34:45;;;;;;;;;;;9.70;99.90;;;;;;5076781;28;19928;-79
2022/04/12 03:37:13;;;;;;;;;;;9.70;99.90;;;;;;5076394;28;19946;-81
2022/04/12 03:39:39;;;;;;;;;;;9.70;99.90;;;;;;5075170;28;19931;-80
2022/04/12 03:42:11;;;;;;;;;;;9.60;99.90;;;;;;5076286;28;19924;-80
2022/04/12 03:44:38;;;;;;;;;;;9.60;99.90;;;;;;5075651;28;19928;-80
2022/04/12 03:47:05;;;;;;;;;;;9.60;99.90;;;;;;5076233;28;19978;-81
2022/04/12 03:49:32;;;;;;;;;;;9.50;99.90;;;;;;5076995;28;19932;-80
2022/04/12 03:51:59;;;;;;;;;;;9.50;99.90;;;;;;5077551;28;19943;-80
2022/04/12 03:54:26;;;;;;;;;;;9.50;99.90;;;;;;5076149;28;19929;-81
2022/04/12 03:56:52;;;;;;;;;;;9.40;99.90;;;;;;5075744;28;19925;-80
2022/04/12 03:59:21;;;;;;;;;;;9.40;99.90;;;;;;5075223;28;19924;-80
2022/04/12 04:01:49;;;;;;;;;;;9.30;99.90;;;;;;5076001;28;19924;-80
2022/04/12 04:04:16;;;;;;;;;;;9.30;99.90;;;;;;5076468;28;19924;-81
2022/04/12 04:06:43;;;;;;;;;;;9.30;99.90;;;;;;5076191;28;19928;-79
2022/04/12 04:09:10;;;;;;;;;;;9.20;99.90;;;;;;5076028;28;19930;-80
2022/04/12 04:11:40;;;;;;;;;;;9.20;99.90;;;;;;5076735;28;19924;-79
2022/04/12 04:14:09;;;;;;;;;;;9.20;99.90;;;;;;5076997;28;19924;-80
2022/04/12 04:16:37;;;;;;;;;;;9.10;99.90;;;;;;5076001;28;19925;-80
2022/04/12 04:19:04;;;;;;;;;;;9.10;99.90;;;;;;5075168;28;19985;-80
2022/04/12 04:21:31;;;;;;;;;;;9.10;99.90;;;;;;5075499;28;19977;-80
2022/04/12 04:23:58;;;;;;;;;;;9.00;99.90;;;;;;5076531;28;19925;-80
2022/04/12 04:26:24;;;;;;;;;;;8.90;99.90;;;;;;5075110;28;19932;-80
2022/04/12 04:28:51;;;;;;;;;;;8.90;99.90;;;;;;5074819;28;19925;-79
2022/04/12 04:31:18;;;;;;;;;;;8.90;99.90;;;;;;5074701;28;19933;-81
2022/04/12 04:33:46;;;;;;;;;;;8.80;99.90;;;;;;5074347;28;20015;-80
2022/04/12 04:36:13;;;;;;;;;;;8.80;99.90;;;;;;5074152;28;19928;-80
2022/04/12 04:38:40;;;;;;;;;;;8.80;99.90;;;;;;5073914;28;19928;-80
2022/04/12 04:41:07;;;;;;;;;;;8.80;99.90;;;;;;5074386;28;20345;-79
2022/04/12 04:43:35;;;;;;;;;;;8.80;99.90;;;;;;5075504;28;19928;-79
2022/04/12 04:46:01;;;;;;;;;;;8.80;99.90;;;;;;5074212;28;20027;-81
2022/04/12 04:48:28;;;;;;;;;;;8.70;99.90;;;;;;5073925;28;20337;-81
2022/04/12 04:50:56;;;;;;;;;;;8.70;99.90;;;;;;5072799;28;19925;-81
2022/04/12 04:53:23;;;;;;;;;;;8.70;99.90;;;;;;5074281;28;19970;-81
2022/04/12 04:55:50;;;;;;;;;;;8.70;99.90;;;;;;5074017;28;19924;-80
2022/04/12 04:58:17;;;;;;;;;;;8.80;99.90;;;;;;5074962;28;19925;-81
2022/04/12 05:00:44;;;;;;;;;;;8.80;99.90;;;;;;5073078;28;20346;-80
2022/04/12 05:03:11;;;;;;;;;;;8.80;99.90;;;;;;5070704;28;20019;-81
2022/04/12 05:05:37;;;;;;;;;;;8.80;99.90;;;;;;5075058;28;19924;-79
2022/04/12 05:08:06;;;;;;;;;;;8.80;99.90;;;;;;5072871;28;19929;-81
2022/04/12 05:10:33;;;;;;;;;;;8.80;99.90;;;;;;5073147;28;19931;-80
2022/04/12 05:13:01;;;;;;;;;;;8.80;99.90;;;;;;5075447;28;20400;-80
2022/04/12 05:15:28;;;;;;;;;;;8.80;99.90;;;;;;5075616;28;19929;-80
2022/04/12 05:17:55;;;;;;;;;;;8.90;99.90;;;;;;5075238;28;20027;-80
2022/04/12 05:20:23;;;;;;;;;;;8.90;99.90;;;;;;5074735;28;19924;-80
2022/04/12 05:22:50;;;;;;;;;;;8.90;99.90;;;;;;5073845;28;19930;-78
2022/04/12 05:25:18;;;;;;;;;;;8.90;99.90;;;;;;5073560;28;19924;-78
2022/04/12 05:27:45;;;;;;;;;;;8.90;99.90;;;;;;5074365;28;19928;-78
2022/04/12 05:30:13;;;;;;;;;;;9.00;99.90;;;;;;5072726;28;19928;-78
2022/04/12 05:32:40;;;;;;;;;;;9.00;99.90;;;;;;5073715;28;19925;-78
2022/04/12 05:35:08;;;;;;;;;;;9.00;99.90;;;;;;5072610;28;19940;-77
2022/04/12 05:37:41;;;;;;;;;;;9.10;99.90;;;;;;5071210;28;20445;-77
2022/04/12 05:40:09;;;;;;;;;;;9.10;99.90;;;;;;5071154;28;19925;-77
2022/04/12 05:42:37;;;;;;;;;;;9.20;99.90;;;;;;5071217;28;19928;-77
2022/04/12 05:45:04;;;;;;;;;;;9.20;99.90;;;;;;5071248;28;19931;-78
2022/04/12 05:47:40;;;;;;;;;;;9.30;99.90;;;;;;5074141;28;19978;-78
2022/04/12 05:50:07;;;;;;;;;;;9.40;99.90;;;;;;5072675;28;20290;-79
2022/04/12 05:52:34;;;;;;;;;;;9.50;99.90;;;;;;5072948;28;19925;-78
2022/04/12 05:55:01;;;;;;;;;;;9.50;99.90;;;;;;5072069;28;19928;-78
2022/04/12 05:57:27;;;;;;;;;;;9.60;99.90;;;;;;5072340;28;19928;-78
2022/04/12 05:59:56;;;;;;;;;;;9.70;99.90;;;;;;5072017;28;19925;-78
2022/04/12 06:02:22;;;;;;;;;;;9.80;99.90;;;;;;5075235;28;20346;-79
2022/04/12 06:04:49;;;;;;;;;;;9.90;99.90;;;;;;5078609;28;19929;-79
2022/04/12 06:07:16;;;;;;;;;;;9.90;99.90;;;;;;5078518;28;19983;-79
2022/04/12 06:09:43;;;;;;;;;;;10.10;99.90;;;;;;5077990;28;20431;-79
2022/04/12 06:12:10;;;;;;;;;;;10.10;99.90;;;;;;5077715;28;19970;-79
2022/04/12 06:14:37;;;;;;;;;;;10.20;99.90;;;;;;5076640;28;19925;-78
2022/04/12 06:17:05;;;;;;;;;;;10.30;99.90;;;;;;5075967;28;19931;-80
2022/04/12 06:19:32;;;;;;;;;;;10.40;99.90;;;;;;5074639;28;19936;-80
2022/04/12 06:21:59;;;;;;;;;;;10.40;99.90;;;;;;5071817;28;19925;-79
2022/04/12 06:24:26;;;;;;;;;;;10.40;99.90;;;;;;5075818;28;19932;-79
2022/04/12 06:26:53;;;;;;;;;;;10.40;99.90;;;;;;5076561;28;19925;-79
2022/04/12 06:29:20;;;;;;;;;;;10.30;99.90;;;;;;5076288;28;20002;-80
2022/04/12 06:31:47;;;;;;;;;;;10.30;99.90;;;;;;5077357;28;19925;-79
2022/04/12 06:34:15;;;;;;;;;;;10.20;99.90;;;;;;5076375;28;19931;-79
2022/04/12 06:36:41;;;;;;;;;;;10.20;99.90;;;;;;5076903;28;19924;-79
2022/04/12 06:39:11;;;;;;;;;;;10.20;99.90;;;;;;5074103;28;19928;-78
2022/04/12 06:41:38;;;;;;;;;;;10.20;99.90;;;;;;5079472;28;19925;-80
2022/04/12 06:44:06;;;;;;;;;;;10.20;99.90;;;;;;5081225;28;19924;-80
2022/04/12 06:46:33;;;;;;;;;;;10.30;99.90;;;;;;5081796;28;20025;-80
2022/04/12 06:48:59;;;;;;;;;;;10.30;99.90;;;;;;5081273;28;19931;-79
2022/04/12 06:51:28;;;;;;;;;;;10.40;99.90;;;;;;5077451;28;19924;-79
2022/04/12 06:53:54;;;;;;;;;;;10.40;99.90;;;;;;5075835;28;19928;-79
2022/04/12 06:56:21;;;;;;;;;;;10.50;99.90;;;;;;5077959;28;19931;-78
2022/04/12 06:58:48;;;;;;;;;;;10.60;99.90;;;;;;5079019;28;19924;-78
2022/04/12 07:01:15;;;;;;;;;;;10.70;99.90;;;;;;5078950;28;20450;-79
2022/04/12 07:03:42;;;;;;;;;;;10.80;99.90;;;;;;5079986;28;19925;-80
2022/04/12 07:06:08;;;;;;;;;;;10.80;99.90;;;;;;5077517;28;19928;-77
2022/04/12 07:08:37;;;;;;;;;;;10.90;99.90;;;;;;5077104;28;19929;-75
2022/04/12 07:11:04;;;;;;;;;;;11.00;99.90;;;;;;5073101;28;19928;-80
2022/04/12 07:13:30;;;;;;;;;;;11.10;99.90;;;;;;5075966;28;20323;-80
2022/04/12 07:15:57;;;;;;;;;;;11.10;99.90;;;;;;5077837;28;19928;-78
2022/04/12 07:18:24;;;;;;;;;;;11.20;99.90;;;;;;5076008;28;19950;-79
2022/04/12 07:20:53;;;;;;;;;;;11.30;99.90;;;;;;5075138;28;19936;-78
2022/04/12 07:23:20;;;;;;;;;;;11.40;99.90;;;;;;5075238;28;19967;-78
2022/04/12 07:25:49;;;;;;;;;;;11.60;99.90;;;;;;5076567;28;19928;-79
2022/04/12 07:28:16;;;;;;;;;;;11.70;99.90;;;;;;5076552;28;19935;-79
2022/04/12 07:30:42;;;;;;;;;;;11.90;99.90;;;;;;5076075;28;19931;-80
2022/04/12 07:33:09;;;;;;;;;;;12.00;99.90;;;;;;5076985;28;19931;-79
2022/04/12 07:35:36;;;;;;;;;;;12.10;99.90;;;;;;5078354;28;19924;-80
2022/04/12 07:38:03;;;;;;;;;;;12.20;99.90;;;;;;5080492;28;19924;-79
2022/04/12 07:40:29;;;;;;;;;;;12.30;99.90;;;;;;5077820;28;19931;-79
2022/04/12 07:42:58;;;;;;;;;;;12.50;99.90;;;;;;5078404;28;19925;-79
2022/04/12 07:45:24;;;;;;;;;;;12.50;99.90;;;;;;5075527;28;19924;-80
2022/04/12 07:47:51;;;;;;;;;;;12.60;99.90;;;;;;5069802;28;20419;-81
2022/04/12 07:50:18;;;;;;;;;;;12.70;99.90;;;;;;5075927;28;19929;-80
2022/04/12 07:52:45;;;;;;;;;;;12.90;99.90;;;;;;5076980;28;19924;-79
2022/04/12 07:55:11;;;;;;;;;;;13.00;99.90;;;;;;5075943;28;19924;-79
2022/04/12 07:57:38;;;;;;;;;;;13.10;99.90;;;;;;5074793;28;20330;-79
2022/04/12 08:00:07;;;;;;;;;;;13.20;99.90;;;;;;5075392;28;19924;-80
2022/04/12 08:02:39;;;;;;;;;;;13.30;99.90;;;;;;5075729;28;19932;-80
2022/04/12 08:05:06;;;;;;;;;;;13.50;99.90;;;;;;5075570;28;19931;-79
2022/04/12 08:07:32;;;;;;;;;;;13.70;99.90;;;;;;5075764;28;19932;-80
2022/04/12 08:10:00;;;;;;;;;;;13.80;99.90;;;;;;5073943;28;19935;-80
2022/04/12 08:12:27;;;;;;;;;;;13.90;99.90;;;;;;5075181;28;19924;-79
2022/04/12 08:14:54;;;;;;;;;;;14.10;99.90;;;;;;5075022;28;19928;-80
2022/04/12 08:17:22;;;;;;;;;;;14.20;99.90;;;;;;5075748;28;19931;-80
2022/04/12 08:19:49;;;;;;;;;;;14.30;99.90;;;;;;5075305;28;20019;-80
2022/04/12 08:22:15;;;;;;;;;;;14.40;99.90;;;;;;5075208;28;19925;-80
2022/04/12 08:24:42;;;;;;;;;;;14.50;99.90;;;;;;5074772;28;19947;-80
2022/04/12 08:27:09;;;;;;;;;;;14.50;99.90;;;;;;5075109;28;19932;-80
2022/04/12 08:29:36;;;;;;;;;;;14.50;99.90;;;;;;5073988;28;20057;-79
2022/04/12 08:32:03;;;;;;;;;;;14.60;99.90;;;;;;5075951;28;20468;-80
2022/04/12 08:34:31;;;;;;;;;;;14.60;99.90;;;;;;5076249;28;19958;-80
2022/04/12 08:36:58;;;;;;;;;;;14.70;99.90;;;;;;5075635;28;19932;-80
2022/04/12 08:39:25;;;;;;;;;;;14.70;99.90;;;;;;5076066;28;19970;-81
2022/04/12 08:41:52;;;;;;;;;;;14.90;99.90;;;;;;5075390;28;19932;-79
2022/04/12 08:44:19;;;;;;;;;;;15.00;99.90;;;;;;5076904;28;19925;-78
2022/04/12 08:46:47;;;;;;;;;;;15.10;99.90;;;;;;5079714;28;19924;-79
2022/04/12 08:49:14;;;;;;;;;;;15.20;99.90;;;;;;5072454;28;20383;-79
2022/04/12 08:51:43;;;;;;;;;;;15.30;99.90;;;;;;5075467;28;19924;-79
2022/04/12 08:54:10;;;;;;;;;;;15.40;99.90;;;;;;5076170;28;19925;-80
2022/04/12 08:56:37;;;;;;;;;;;15.60;99.90;;;;;;5076077;28;19979;-80
2022/04/12 08:59:04;;;;;;;;;;;15.70;99.90;;;;;;5076257;28;19978;-80
2022/04/12 09:01:31;;;;;;;;;;;15.80;99.90;;;;;;5075544;28;19985;-80
2022/04/12 09:03:58;;;;;;;;;;;16.00;99.90;;;;;;5076309;28;20004;-79
2022/04/12 09:06:25;;;;;;;;;;;16.10;99.90;;;;;;5075530;28;20335;-80
2022/04/12 09:08:53;;;;;;;;;;;16.20;99.90;;;;;;5074923;28;19935;-80
2022/04/12 09:11:20;;;;;;;;;;;16.30;99.90;;;;;;5076061;28;19929;-80
2022/04/12 09:13:58;;;;;;;;;;;16.30;99.90;;;;;;5076075;28;19924;-80
2022/04/12 09:16:25;;;;;;;;;;;16.30;99.90;;;;;;5076157;28;19925;-80
2022/04/12 09:18:52;;;;;;;;;;;16.40;99.90;;;;;;5068559;28;19924;-79
2022/04/12 09:21:19;;;;;;;;;;;16.50;99.90;;;;;;5077131;28;19990;-80
2022/04/12 09:23:47;;;;;;;;;;;16.50;99.90;;;;;;5078128;28;19931;-80
2022/04/12 09:26:22;;;;;;;;;;;16.60;99.90;;;;;;5077145;28;19924;-81
2022/04/12 09:28:49;;;;;;;;;;;16.80;99.90;;;;;;5077780;28;19933;-79
2022/04/12 09:31:16;;;;;;;;;;;16.90;99.90;;;;;;5075309;28;19931;-80
2022/04/12 09:33:43;;;;;;;;;;;17.00;99.90;;;;;;5075918;28;19929;-79
2022/04/12 09:36:11;;;;;;;;;;;17.20;99.90;;;;;;5076115;28;20371;-80
2022/04/12 09:38:39;;;;;;;;;;;17.30;99.90;;;;;;5076334;28;19924;-80
2022/04/12 09:41:13;;;;;;;;;;;17.50;99.90;;;;;;5076180;28;19924;-80
2022/04/12 09:43:50;;;;;;;;;;;17.60;99.90;;;;;;5074745;28;19967;-81
2022/04/12 09:46:17;;;;;;;;;;;17.60;99.90;;;;;;5065783;28;19925;-81
2022/04/12 09:48:46;;;;;;;;;;;17.60;99.90;;;;;;5074689;28;19936;-79
2022/04/12 09:51:13;;;;;;;;;;;17.70;99.90;;;;;;5073753;28;20312;-80
2022/04/12 09:53:40;;;;;;;;;;;17.80;99.90;;;;;;5074642;28;19931;-80
2022/04/12 09:56:18;;;;;;;;;;;17.90;99.90;;;;;;5073395;28;19931;-79
2022/04/12 09:58:47;;;;;;;;;;;18.00;99.90;;;;;;5074983;28;19925;-79
2022/04/12 10:01:15;;;;;;;;;;;18.10;99.90;;;;;;5076055;28;19966;-80
2022/04/12 10:03:44;;;;;;;;;;;18.10;99.90;;;;;;5076223;28;19924;-81
2022/04/12 10:06:12;;;;;;;;;;;18.30;99.90;;;;;;5077038;28;19928;-81
2022/04/12 10:08:40;;;;;;;;;;;18.50;99.90;;;;;;5076408;28;19925;-81
2022/04/12 10:11:07;;;;;;;;;;;18.60;99.90;;;;;;5075244;28;19924;-80
2022/04/12 10:13:34;;;;;;;;;;;18.80;99.90;;;;;;5075953;28;19924;-80
2022/04/12 10:16:03;;;;;;;;;;;19.00;99.90;;;;;;5076815;28;19925;-80
2022/04/12 10:18:29;;;;;;;;;;;19.20;99.90;;;;;;5076363;28;19936;-80
2022/04/12 10:20:58;;;;;;;;;;;19.30;99.90;;;;;;5074089;28;19950;-80
2022/04/12 10:23:26;;;;;;;;;;;19.40;99.90;;;;;;5074156;28;19928;-79
2022/04/12 10:25:54;;;;;;;;;;;19.40;99.90;;;;;;5073656;28;19924;-79
2022/04/12 10:28:21;;;;;;;;;;;19.60;99.90;;;;;;5073953;28;19924;-80
2022/04/12 10:30:48;;;;;;;;;;;19.70;99.90;;;;;;5076066;28;19924;-80
2022/04/12 10:33:24;;;;;;;;;;;19.90;99.90;;;;;;5075305;28;19930;-80
2022/04/12 10:35:58;;;;;;;;;;;20.00;99.90;;;;;;5075460;28;19932;-80
2022/04/12 10:38:26;;;;;;;;;;;20.00;99.90;;;;;;5074525;28;19972;-79
2022/04/12 10:40:54;;;;;;;;;;;20.20;99.90;;;;;;5070760;28;19924;-80
2022/04/12 10:43:22;;;;;;;;;;;20.30;99.90;;;;;;5075027;28;19997;-80
2022/04/12 10:45:50;;;;;;;;;;;20.60;99.90;;;;;;5074637;28;19925;-80
2022/04/12 10:48:20;;;;;;;;;;;20.80;99.90;;;;;;5074873;28;20367;-80
2022/04/12 10:50:48;;;;;;;;;;;20.90;99.90;;;;;;5078946;28;19924;-80
2022/04/12 10:53:15;;;;;;;;;;;21.20;99.90;;;;;;5078298;28;19924;-80
2022/04/12 10:55:43;;;;;;;;;;;21.40;99.90;;;;;;5078376;28;20342;-80
2022/04/12 10:58:14;;;;;;;;;;;21.60;99.90;;;;;;5078554;28;19934;-79
2022/04/12 11:00:42;;;;;;;;;;;21.60;99.90;;;;;;5078650;28;19928;-80
2022/04/12 11:03:11;;;;;;;;;;;21.90;99.90;;;;;;5078498;28;19990;-80
2022/04/12 11:06:02;;;;;;;;;;;22.10;99.90;;;;;;5078243;28;19932;-80
2022/04/12 11:08:50;;;;;;;;;;;22.30;99.90;;;;;;5078249;28;19946;-80
2022/04/12 11:11:18;;;;;;;;;;;22.70;99.90;;;;;;5078868;28;19924;-80
2022/04/12 11:13:45;;;;;;;;;;;22.60;99.90;;;;;;5077922;28;20377;-80
2022/04/12 11:16:13;;;;;;;;;;;22.70;99.90;;;;;;5078976;28;20417;-80
2022/04/12 11:18:46;;;;;;;;;;;22.60;99.90;;;;;;5076683;28;20027;-80
2022/04/12 11:21:14;;;;;;;;;;;22.70;99.90;;;;;;5077659;28;19928;-80
2022/04/12 11:23:48;;;;;;;;;;;22.60;99.90;;;;;;5078180;28;19929;-80
2022/04/12 11:26:33;;;;;;;;;;;22.60;99.90;;;;;;5077489;28;20338;-79
2022/04/12 11:29:02;;;;;;;;;;;22.70;99.90;;;;;;5077285;28;19939;-80
2022/04/12 11:31:28;;;;;;;;;;;22.70;99.90;;;;;;5073806;28;19932;-80
2022/04/12 11:33:58;;;;;;;;;;;23.00;99.90;;;;;;5074706;28;20330;-80
2022/04/12 11:36:25;;;;;;;;;;;23.30;99.90;;;;;;5076436;28;19933;-80
2022/04/12 11:38:52;;;;;;;;;;;23.60;99.90;;;;;;5068373;28;19925;-81
2022/04/12 11:41:19;;;;;;;;;;;23.80;99.90;;;;;;5077871;28;19929;-81
2022/04/12 11:43:45;;;;;;;;;;;23.80;99.90;;;;;;5080149;28;19924;-81
2022/04/12 11:46:18;;;;;;;;;;;24.70;99.90;;;;;;5077340;28;19936;-80
2022/04/12 11:48:45;;;;;;;;;;;25.70;99.90;;;;;;5080320;28;19929;-80
2022/04/12 11:51:11;;;;;;;;;;;25.30;99.90;;;;;;5076933;28;20284;-82
2022/04/12 11:53:46;;;;;;;;;;;24.70;99.90;;;;;;5077152;28;19924;-82
2022/04/12 11:56:13;;;;;;;;;;;24.70;99.90;;;;;;5077909;28;19924;-82
2022/04/12 11:58:40;;;;;;;;;;;24.50;99.90;;;;;;5077096;28;19963;-81
2022/04/12 12:01:07;;;;;;;;;;;24.10;99.90;;;;;;5073650;28;20419;-81
2022/04/12 12:03:37;;;;;;;;;;;24.20;99.90;;;;;;5077295;28;20014;-80
2022/04/12 12:06:04;;;;;;;;;;;24.10;99.90;;;;;;5078041;28;19925;-81
2022/04/12 12:08:32;;;;;;;;;;;23.80;99.90;;;;;;5078300;28;19925;-81
2022/04/12 12:11:09;;;;;;;;;;;23.80;99.90;;;;;;5077715;28;19977;-81
2022/04/12 12:13:36;;;;;;;;;;;23.70;99.90;;;;;;5078048;28;19928;-81
2022/04/12 12:16:03;;;;;;;;;;;23.90;99.90;;;;;;5076904;28;19931;-81
2022/04/12 12:18:39;;;;;;;;;;;24.40;99.90;;;;;;5077058;28;19928;-81
2022/04/12 12:21:07;;;;;;;;;;;24.80;99.90;;;;;;5077455;28;19924;-81
2022/04/12 12:23:34;;;;;;;;;;;25.50;99.90;;;;;;5077113;28;19986;-81
2022/04/12 12:26:01;;;;;;;;;;;26.40;99.90;;;;;;5076964;28;19928;-81
2022/04/12 12:28:28;;;;;;;;;;;26.90;99.90;;;;;;5077510;28;19924;-82
2022/04/12 12:30:59;;;;;;;;;;;27.40;99.90;;;;;;5074309;28;20343;-82
2022/04/12 12:33:26;;;;;;;;;;;27.40;99.90;;;;;;5076907;28;20318;-81
2022/04/12 12:35:53;;;;;;;;;;;26.90;99.90;;;;;;5076706;28;19986;-81
2022/04/12 12:38:27;;;;;;;;;;;27.00;99.90;;;;;;5073307;28;19951;-80
2022/04/12 12:40:55;;;;;;;;;;;27.20;99.90;;;;;;5073152;28;19935;-81
2022/04/12 12:43:22;;;;;;;;;;;27.60;99.90;;;;;;5078757;28;19994;-81
2022/04/12 12:45:51;;;;;;;;;;;27.40;99.90;;;;;;5078616;28;19924;-80
2022/04/12 12:48:18;;;;;;;;;;;27.20;99.90;;;;;;5078841;28;19925;-79
2022/04/12 12:50:45;;;;;;;;;;;27.50;99.90;;;;;;5076715;28;19928;-82
2022/04/12 12:53:12;;;;;;;;;;;27.40;99.90;;;;;;5077875;28;19928;-82
2022/04/12 12:55:41;;;;;;;;;;;27.00;99.90;;;;;;5077492;28;20303;-81
2022/04/12 12:58:09;;;;;;;;;;;27.00;99.90;;;;;;5077203;28;20288;-82
2022/04/12 13:00:36;;;;;;;;;;;27.10;99.90;;;;;;5077682;28;19929;-81
2022/04/12 13:03:04;;;;;;;;;;;27.00;99.90;;;;;;5077919;28;19956;-82
2022/04/12 13:05:31;;;;;;;;;;;26.90;99.90;;;;;;5076891;28;20521;-82
2022/04/12 13:08:00;;;;;;;;;;;27.30;99.90;;;;;;5077410;28;19932;-81
2022/04/12 13:10:28;;;;;;;;;;;27.60;99.90;;;;;;5075823;28;20010;-80
2022/04/12 13:12:56;;;;;;;;;;;27.70;99.90;;;;;;5072513;28;19931;-80
2022/04/12 13:15:23;;;;;;;;;;;27.50;99.90;;;;;;5074872;28;19925;-79
2022/04/12 13:17:50;;;;;;;;;;;27.60;99.90;;;;;;5073716;28;19925;-80
2022/04/12 13:20:18;;;;;;;;;;;27.80;99.90;;;;;;5077105;28;19924;-83
2022/04/12 13:22:45;;;;;;;;;;;27.90;99.90;;;;;;5080412;28;20167;-83
2022/04/12 13:25:17;;;;;;;;;;;28.00;99.90;;;;;;5078550;28;19928;-83
2022/04/12 13:27:45;;;;;;;;;;;28.00;99.90;;;;;;5080623;28;19924;-83
2022/04/12 13:30:13;;;;;;;;;;;27.90;99.90;;;;;;5082158;28;19929;-83
2022/04/12 13:32:40;;;;;;;;;;;28.20;99.90;;;;;;5080265;28;20467;-83
2022/04/12 13:35:08;;;;;;;;;;;28.50;99.90;;;;;;5081592;28;19924;-83
2022/04/12 13:37:35;;;;;;;;;;;28.80;99.90;;;;;;5082840;28;19935;-83
2022/04/12 13:40:02;;;;;;;;;;;29.20;99.90;;;;;;5078508;28;20023;-82
2022/04/12 13:42:29;;;;;;;;;;;29.40;99.90;;;;;;5080531;28;20369;-82
2022/04/12 13:44:57;;;;;;;;;;;29.40;99.90;;;;;;5077410;28;19924;-82
2022/04/12 13:47:25;;;;;;;;;;;28.90;99.90;;;;;;5077178;28;19931;-82
2022/04/12 13:49:52;;;;;;;;;;;28.90;99.90;;;;;;5077188;28;19933;-81
2022/04/12 13:52:21;;;;;;;;;;;29.30;99.90;;;;;;5077834;28;20019;-81
2022/04/12 13:54:48;;;;;;;;;;;28.70;99.90;;;;;;5078718;28;19940;-81
2022/04/12 13:57:15;;;;;;;;;;;28.30;99.90;;;;;;5085923;28;20396;-81
2022/04/12 13:59:41;;;;;;;;;;;28.40;99.90;;;;;;5076494;28;20010;-82
2022/04/12 14:02:08;;;;;;;;;;;28.30;99.90;;;;;;5075938;28;19924;-81
2022/04/12 14:04:36;;;;;;;;;;;28.30;99.90;;;;;;5075791;28;20000;-80
2022/04/12 14:07:03;;;;;;;;;;;28.10;99.90;;;;;;5075498;28;19946;-80
2022/04/12 14:09:30;;;;;;;;;;;27.90;99.90;;;;;;5075464;28;19924;-81
2022/04/12 14:11:57;;;;;;;;;;;27.40;99.90;;;;;;5075838;28;19932;-81
2022/04/12 14:14:24;;;;;;;;;;;27.20;99.90;;;;;;5075722;28;20391;-81
2022/04/12 14:16:51;;;;;;;;;;;27.10;99.90;;;;;;5074802;28;19925;-81
2022/04/12 14:19:20;;;;;;;;;;;27.40;99.90;;;;;;5074445;28;20358;-81
2022/04/12 14:21:49;;;;;;;;;;;27.60;99.90;;;;;;5093112;22;19924;-75
2022/04/12 14:24:16;;;;;;;;;;;27.80;99.90;;;;;;5054546;28;19924;-75